sensor_id;sensor_type;location;lat;lon;timestamp;P1;durP1;ratioP1;P2;durP2;ratioP2
76409;SDS011;65238;42.662;23.280;2022-12-07T00:01:17;59.08;;;29.73;;
76409;SDS011;65238;42.662;23.280;2022-12-07T00:03:44;64.07;;;30.67;;
76409;SDS011;65238;42.662;23.280;2022-12-07T00:06:10;65.28;;;29.58;;
76409;SDS011;65238;42.662;23.280;2022-12-07T00:08:37;62.25;;;30.10;;
76409;SDS011;65238;42.662;23.280;2022-12-07T00:11:05;76.85;;;34.85;;
76409;SDS011;65238;42.662;23.280;2022-12-07T00:13:34;68.53;;;35.85;;
76409;SDS011;65238;42.662;23.280;2022-12-07T00:16:01;69.50;;;35.03;;
76409;SDS011;65238;42.662;23.280;2022-12-07T00:18:28;77.10;;;35.72;;
76409;SDS011;65238;42.662;23.280;2022-12-07T00:20:58;71.95;;;34.65;;
76409;SDS011;65238;42.662;23.280;2022-12-07T00:23:44;72.22;;;32.58;;
76409;SDS011;65238;42.662;23.280;2022-12-07T00:26:15;70.80;;;32.75;;
76409;SDS011;65238;42.662;23.280;2022-12-07T00:28:45;63.55;;;33.63;;
76409;SDS011;65238;42.662;23.280;2022-12-07T00:31:18;67.72;;;31.70;;
76409;SDS011;65238;42.662;23.280;2022-12-07T00:33:46;56.67;;;30.27;;
76409;SDS011;65238;42.662;23.280;2022-12-07T00:36:13;65.63;;;30.02;;
76409;SDS011;65238;42.662;23.280;2022-12-07T00:38:40;75.32;;;33.95;;
76409;SDS011;65238;42.662;23.280;2022-12-07T00:41:07;69.80;;;35.80;;
76409;SDS011;65238;42.662;23.280;2022-12-07T00:43:39;78.18;;;32.45;;
76409;SDS011;65238;42.662;23.280;2022-12-07T00:46:05;65.22;;;30.40;;
76409;SDS011;65238;42.662;23.280;2022-12-07T00:48:31;63.55;;;30.83;;
76409;SDS011;65238;42.662;23.280;2022-12-07T00:50:57;69.90;;;30.35;;
76409;SDS011;65238;42.662;23.280;2022-12-07T00:53:23;60.83;;;29.30;;
76409;SDS011;65238;42.662;23.280;2022-12-07T00:55:49;60.85;;;29.70;;
76409;SDS011;65238;42.662;23.280;2022-12-07T00:58:14;57.13;;;30.02;;
76409;SDS011;65238;42.662;23.280;2022-12-07T01:00:40;63.63;;;30.02;;
76409;SDS011;65238;42.662;23.280;2022-12-07T01:03:07;65.78;;;29.95;;
76409;SDS011;65238;42.662;23.280;2022-12-07T01:05:35;69.90;;;31.17;;
76409;SDS011;65238;42.662;23.280;2022-12-07T01:08:00;62.28;;;29.63;;
76409;SDS011;65238;42.662;23.280;2022-12-07T01:10:26;65.30;;;31.02;;
76409;SDS011;65238;42.662;23.280;2022-12-07T01:12:52;65.03;;;30.70;;
76409;SDS011;65238;42.662;23.280;2022-12-07T01:15:18;60.58;;;29.17;;
76409;SDS011;65238;42.662;23.280;2022-12-07T01:17:43;61.97;;;29.75;;
76409;SDS011;65238;42.662;23.280;2022-12-07T01:20:09;69.30;;;31.98;;
76409;SDS011;65238;42.662;23.280;2022-12-07T01:22:38;63.17;;;31.23;;
76409;SDS011;65238;42.662;23.280;2022-12-07T01:25:05;63.28;;;31.35;;
76409;SDS011;65238;42.662;23.280;2022-12-07T01:27:32;65.28;;;29.35;;
76409;SDS011;65238;42.662;23.280;2022-12-07T01:29:58;67.75;;;29.13;;
76409;SDS011;65238;42.662;23.280;2022-12-07T01:32:24;59.45;;;29.38;;
76409;SDS011;65238;42.662;23.280;2022-12-07T01:34:49;62.40;;;31.17;;
76409;SDS011;65238;42.662;23.280;2022-12-07T01:37:15;63.85;;;31.27;;
76409;SDS011;65238;42.662;23.280;2022-12-07T01:39:40;60.85;;;29.92;;
76409;SDS011;65238;42.662;23.280;2022-12-07T01:42:09;63.65;;;30.08;;
76409;SDS011;65238;42.662;23.280;2022-12-07T01:45:14;62.88;;;29.30;;
76409;SDS011;65238;42.662;23.280;2022-12-07T01:47:39;61.83;;;30.20;;
76409;SDS011;65238;42.662;23.280;2022-12-07T01:50:04;70.80;;;32.28;;
76409;SDS011;65238;42.662;23.280;2022-12-07T01:52:31;72.10;;;30.60;;
76409;SDS011;65238;42.662;23.280;2022-12-07T01:54:59;58.72;;;29.58;;
76409;SDS011;65238;42.662;23.280;2022-12-07T01:57:27;72.78;;;34.67;;
76409;SDS011;65238;42.662;23.280;2022-12-07T01:59:53;68.05;;;33.00;;
76409;SDS011;65238;42.662;23.280;2022-12-07T02:02:23;66.18;;;32.38;;
76409;SDS011;65238;42.662;23.280;2022-12-07T02:04:58;66.88;;;34.05;;
76409;SDS011;65238;42.662;23.280;2022-12-07T02:07:24;61.55;;;31.58;;
76409;SDS011;65238;42.662;23.280;2022-12-07T02:09:50;63.13;;;31.90;;
76409;SDS011;65238;42.662;23.280;2022-12-07T02:12:16;58.10;;;29.00;;
76409;SDS011;65238;42.662;23.280;2022-12-07T02:14:41;59.88;;;29.23;;
76409;SDS011;65238;42.662;23.280;2022-12-07T02:17:10;67.35;;;32.60;;
76409;SDS011;65238;42.662;23.280;2022-12-07T02:25:23;60.08;;;30.55;;
76409;SDS011;65238;42.662;23.280;2022-12-07T02:30:34;57.78;;;28.27;;
76409;SDS011;65238;42.662;23.280;2022-12-07T02:38:14;57.30;;;28.92;;
76409;SDS011;65238;42.662;23.280;2022-12-07T02:43:35;58.40;;;27.63;;
76409;SDS011;65238;42.662;23.280;2022-12-07T02:46:08;55.25;;;28.15;;
76409;SDS011;65238;42.662;23.280;2022-12-07T02:48:35;60.67;;;27.83;;
76409;SDS011;65238;42.662;23.280;2022-12-07T02:51:02;55.63;;;27.45;;
76409;SDS011;65238;42.662;23.280;2022-12-07T02:53:28;63.85;;;29.75;;
76409;SDS011;65238;42.662;23.280;2022-12-07T02:56:18;63.20;;;27.88;;
76409;SDS011;65238;42.662;23.280;2022-12-07T03:03:48;65.57;;;31.42;;
76409;SDS011;65238;42.662;23.280;2022-12-07T03:06:25;58.20;;;29.73;;
76409;SDS011;65238;42.662;23.280;2022-12-07T03:11:42;124.50;;;51.20;;
76409;SDS011;65238;42.662;23.280;2022-12-07T03:14:25;134.70;;;56.42;;
76409;SDS011;65238;42.662;23.280;2022-12-07T03:16:57;92.93;;;40.35;;
76409;SDS011;65238;42.662;23.280;2022-12-07T03:19:27;88.70;;;39.70;;
76409;SDS011;65238;42.662;23.280;2022-12-07T03:22:06;76.80;;;33.78;;
76409;SDS011;65238;42.662;23.280;2022-12-07T03:24:37;74.10;;;33.63;;
76409;SDS011;65238;42.662;23.280;2022-12-07T03:32:47;61.78;;;27.33;;
76409;SDS011;65238;42.662;23.280;2022-12-07T03:43:00;58.55;;;28.20;;
76409;SDS011;65238;42.662;23.280;2022-12-07T03:45:31;57.17;;;29.60;;
76409;SDS011;65238;42.662;23.280;2022-12-07T03:50:57;53.92;;;27.08;;
76409;SDS011;65238;42.662;23.280;2022-12-07T03:53:34;58.13;;;25.45;;
76409;SDS011;65238;42.662;23.280;2022-12-07T03:56:04;51.75;;;25.08;;
76409;SDS011;65238;42.662;23.280;2022-12-07T03:58:30;58.22;;;26.40;;
76409;SDS011;65238;42.662;23.280;2022-12-07T04:00:56;57.72;;;27.73;;
76409;SDS011;65238;42.662;23.280;2022-12-07T04:03:22;55.97;;;27.65;;
76409;SDS011;65238;42.662;23.280;2022-12-07T04:05:48;64.38;;;28.90;;
76409;SDS011;65238;42.662;23.280;2022-12-07T04:08:13;54.55;;;28.00;;
76409;SDS011;65238;42.662;23.280;2022-12-07T04:10:39;56.58;;;27.42;;
76409;SDS011;65238;42.662;23.280;2022-12-07T04:13:04;58.45;;;26.98;;
76409;SDS011;65238;42.662;23.280;2022-12-07T04:15:29;60.00;;;28.08;;
76409;SDS011;65238;42.662;23.280;2022-12-07T04:17:55;62.63;;;29.70;;
76409;SDS011;65238;42.662;23.280;2022-12-07T04:20:20;60.20;;;27.20;;
76409;SDS011;65238;42.662;23.280;2022-12-07T04:22:46;59.03;;;27.45;;
76409;SDS011;65238;42.662;23.280;2022-12-07T04:25:11;53.83;;;27.55;;
76409;SDS011;65238;42.662;23.280;2022-12-07T04:27:37;56.33;;;27.70;;
76409;SDS011;65238;42.662;23.280;2022-12-07T04:30:02;54.92;;;28.58;;
76409;SDS011;65238;42.662;23.280;2022-12-07T04:32:28;59.10;;;27.65;;
76409;SDS011;65238;42.662;23.280;2022-12-07T04:34:57;64.72;;;30.00;;
76409;SDS011;65238;42.662;23.280;2022-12-07T04:37:22;61.00;;;30.25;;
76409;SDS011;65238;42.662;23.280;2022-12-07T04:39:49;61.78;;;29.40;;
76409;SDS011;65238;42.662;23.280;2022-12-07T04:42:14;61.97;;;30.05;;
76409;SDS011;65238;42.662;23.280;2022-12-07T04:44:40;56.08;;;27.50;;
76409;SDS011;65238;42.662;23.280;2022-12-07T04:47:05;55.97;;;25.77;;
76409;SDS011;65238;42.662;23.280;2022-12-07T04:49:31;52.30;;;26.77;;
76409;SDS011;65238;42.662;23.280;2022-12-07T04:51:56;63.25;;;27.35;;
76409;SDS011;65238;42.662;23.280;2022-12-07T04:54:22;57.85;;;26.67;;
76409;SDS011;65238;42.662;23.280;2022-12-07T04:56:48;59.42;;;27.40;;
76409;SDS011;65238;42.662;23.280;2022-12-07T04:59:14;59.00;;;27.45;;
76409;SDS011;65238;42.662;23.280;2022-12-07T05:01:41;54.00;;;26.58;;
76409;SDS011;65238;42.662;23.280;2022-12-07T05:04:06;59.17;;;27.25;;
76409;SDS011;65238;42.662;23.280;2022-12-07T05:06:33;57.15;;;26.75;;
76409;SDS011;65238;42.662;23.280;2022-12-07T05:08:58;60.53;;;28.48;;
76409;SDS011;65238;42.662;23.280;2022-12-07T05:11:24;66.72;;;30.58;;
76409;SDS011;65238;42.662;23.280;2022-12-07T05:16:43;64.13;;;29.38;;
76409;SDS011;65238;42.662;23.280;2022-12-07T05:19:12;62.80;;;29.08;;
76409;SDS011;65238;42.662;23.280;2022-12-07T05:21:40;59.45;;;28.27;;
76409;SDS011;65238;42.662;23.280;2022-12-07T05:24:06;59.55;;;28.42;;
76409;SDS011;65238;42.662;23.280;2022-12-07T05:26:33;60.85;;;29.58;;
76409;SDS011;65238;42.662;23.280;2022-12-07T05:28:59;63.63;;;28.52;;
76409;SDS011;65238;42.662;23.280;2022-12-07T05:31:25;56.67;;;27.25;;
76409;SDS011;65238;42.662;23.280;2022-12-07T05:33:51;57.97;;;28.27;;
76409;SDS011;65238;42.662;23.280;2022-12-07T05:36:16;60.00;;;26.05;;
76409;SDS011;65238;42.662;23.280;2022-12-07T05:38:42;52.35;;;26.63;;
76409;SDS011;65238;42.662;23.280;2022-12-07T05:41:08;60.90;;;28.52;;
76409;SDS011;65238;42.662;23.280;2022-12-07T05:43:53;53.53;;;26.55;;
76409;SDS011;65238;42.662;23.280;2022-12-07T05:46:19;56.30;;;26.83;;
76409;SDS011;65238;42.662;23.280;2022-12-07T05:48:44;59.30;;;27.10;;
76409;SDS011;65238;42.662;23.280;2022-12-07T05:51:10;62.03;;;28.65;;
76409;SDS011;65238;42.662;23.280;2022-12-07T05:53:35;61.08;;;29.48;;
76409;SDS011;65238;42.662;23.280;2022-12-07T05:56:01;56.75;;;26.85;;
76409;SDS011;65238;42.662;23.280;2022-12-07T05:58:26;57.67;;;27.30;;
76409;SDS011;65238;42.662;23.280;2022-12-07T06:01:10;60.63;;;27.55;;
76409;SDS011;65238;42.662;23.280;2022-12-07T06:03:36;59.20;;;26.58;;
76409;SDS011;65238;42.662;23.280;2022-12-07T06:06:01;58.33;;;27.02;;
76409;SDS011;65238;42.662;23.280;2022-12-07T06:08:26;55.72;;;26.17;;
76409;SDS011;65238;42.662;23.280;2022-12-07T06:10:52;56.03;;;26.42;;
76409;SDS011;65238;42.662;23.280;2022-12-07T06:13:37;56.47;;;25.55;;
76409;SDS011;65238;42.662;23.280;2022-12-07T06:16:02;55.90;;;26.23;;
76409;SDS011;65238;42.662;23.280;2022-12-07T06:18:28;54.80;;;24.27;;
76409;SDS011;65238;42.662;23.280;2022-12-07T06:20:54;49.83;;;24.55;;
76409;SDS011;65238;42.662;23.280;2022-12-07T06:23:19;54.63;;;24.42;;
76409;SDS011;65238;42.662;23.280;2022-12-07T06:25:45;67.53;;;28.33;;
76409;SDS011;65238;42.662;23.280;2022-12-07T06:28:11;54.38;;;25.70;;
76409;SDS011;65238;42.662;23.280;2022-12-07T06:30:36;55.22;;;25.65;;
76409;SDS011;65238;42.662;23.280;2022-12-07T06:33:02;50.60;;;25.08;;
76409;SDS011;65238;42.662;23.280;2022-12-07T06:35:27;53.30;;;23.80;;
76409;SDS011;65238;42.662;23.280;2022-12-07T06:37:52;65.53;;;27.15;;
76409;SDS011;65238;42.662;23.280;2022-12-07T06:40:18;56.90;;;27.13;;
76409;SDS011;65238;42.662;23.280;2022-12-07T06:42:43;58.17;;;27.27;;
76409;SDS011;65238;42.662;23.280;2022-12-07T06:45:09;57.95;;;26.17;;
76409;SDS011;65238;42.662;23.280;2022-12-07T06:47:34;63.95;;;27.77;;
76409;SDS011;65238;42.662;23.280;2022-12-07T06:50:00;57.58;;;25.95;;
76409;SDS011;65238;42.662;23.280;2022-12-07T06:52:25;64.32;;;28.67;;
76409;SDS011;65238;42.662;23.280;2022-12-07T06:54:51;64.28;;;30.00;;
76409;SDS011;65238;42.662;23.280;2022-12-07T06:57:16;61.03;;;29.33;;
76409;SDS011;65238;42.662;23.280;2022-12-07T06:59:42;78.63;;;31.85;;
76409;SDS011;65238;42.662;23.280;2022-12-07T07:02:08;65.22;;;31.58;;
76409;SDS011;65238;42.662;23.280;2022-12-07T07:04:34;70.72;;;32.28;;
76409;SDS011;65238;42.662;23.280;2022-12-07T07:07:00;65.28;;;31.02;;
76409;SDS011;65238;42.662;23.280;2022-12-07T07:09:25;69.32;;;29.75;;
76409;SDS011;65238;42.662;23.280;2022-12-07T07:11:51;65.90;;;29.98;;
76409;SDS011;65238;42.662;23.280;2022-12-07T07:14:16;63.22;;;29.80;;
76409;SDS011;65238;42.662;23.280;2022-12-07T07:16:44;78.43;;;31.67;;
76409;SDS011;65238;42.662;23.280;2022-12-07T07:19:09;72.45;;;32.35;;
76409;SDS011;65238;42.662;23.280;2022-12-07T07:21:36;66.63;;;32.00;;
76409;SDS011;65238;42.662;23.280;2022-12-07T07:24:01;79.70;;;33.42;;
76409;SDS011;65238;42.662;23.280;2022-12-07T07:26:27;66.43;;;32.25;;
76409;SDS011;65238;42.662;23.280;2022-12-07T07:28:52;71.25;;;32.17;;
76409;SDS011;65238;42.662;23.280;2022-12-07T07:31:18;73.72;;;32.97;;
76409;SDS011;65238;42.662;23.280;2022-12-07T07:33:44;73.53;;;34.17;;
76409;SDS011;65238;42.662;23.280;2022-12-07T07:36:11;77.65;;;34.45;;
76409;SDS011;65238;42.662;23.280;2022-12-07T07:38:36;72.93;;;32.70;;
76409;SDS011;65238;42.662;23.280;2022-12-07T07:41:02;71.68;;;31.70;;
76409;SDS011;65238;42.662;23.280;2022-12-07T07:43:27;75.38;;;34.70;;
76409;SDS011;65238;42.662;23.280;2022-12-07T07:45:53;76.25;;;35.30;;
76409;SDS011;65238;42.662;23.280;2022-12-07T07:48:19;75.07;;;35.50;;
76409;SDS011;65238;42.662;23.280;2022-12-07T07:50:47;63.00;;;31.52;;
76409;SDS011;65238;42.662;23.280;2022-12-07T07:53:13;80.35;;;34.25;;
76409;SDS011;65238;42.662;23.280;2022-12-07T07:55:38;71.35;;;34.22;;
76409;SDS011;65238;42.662;23.280;2022-12-07T07:58:04;70.93;;;33.38;;
76409;SDS011;65238;42.662;23.280;2022-12-07T08:00:29;74.93;;;34.13;;
76409;SDS011;65238;42.662;23.280;2022-12-07T08:02:55;67.95;;;32.15;;
76409;SDS011;65238;42.662;23.280;2022-12-07T08:05:20;72.43;;;32.15;;
76409;SDS011;65238;42.662;23.280;2022-12-07T08:07:48;70.72;;;32.28;;
76409;SDS011;65238;42.662;23.280;2022-12-07T08:10:13;63.70;;;30.25;;
76409;SDS011;65238;42.662;23.280;2022-12-07T08:12:39;72.10;;;31.60;;
76409;SDS011;65238;42.662;23.280;2022-12-07T08:15:27;71.20;;;32.65;;
76409;SDS011;65238;42.662;23.280;2022-12-07T08:17:54;77.90;;;32.75;;
76409;SDS011;65238;42.662;23.280;2022-12-07T08:20:20;70.20;;;32.55;;
76409;SDS011;65238;42.662;23.280;2022-12-07T08:22:45;66.05;;;32.15;;
76409;SDS011;65238;42.662;23.280;2022-12-07T08:25:11;72.28;;;33.92;;
76409;SDS011;65238;42.662;23.280;2022-12-07T08:27:37;71.68;;;32.20;;
76409;SDS011;65238;42.662;23.280;2022-12-07T08:30:02;67.57;;;32.30;;
76409;SDS011;65238;42.662;23.280;2022-12-07T08:32:30;73.85;;;34.38;;
76409;SDS011;65238;42.662;23.280;2022-12-07T08:34:56;78.00;;;35.42;;
76409;SDS011;65238;42.662;23.280;2022-12-07T08:37:21;70.07;;;29.05;;
76409;SDS011;65238;42.662;23.280;2022-12-07T08:39:47;74.32;;;29.55;;
76409;SDS011;65238;42.662;23.280;2022-12-07T08:42:12;60.92;;;28.45;;
76409;SDS011;65238;42.662;23.280;2022-12-07T08:44:38;62.55;;;29.92;;
76409;SDS011;65238;42.662;23.280;2022-12-07T08:47:04;62.85;;;28.85;;
76409;SDS011;65238;42.662;23.280;2022-12-07T08:49:32;65.80;;;29.95;;
76409;SDS011;65238;42.662;23.280;2022-12-07T08:52:01;61.47;;;29.08;;
76409;SDS011;65238;42.662;23.280;2022-12-07T08:54:26;57.47;;;28.83;;
76409;SDS011;65238;42.662;23.280;2022-12-07T08:56:54;59.90;;;28.05;;
76409;SDS011;65238;42.662;23.280;2022-12-07T08:59:20;64.55;;;28.80;;
76409;SDS011;65238;42.662;23.280;2022-12-07T09:01:45;66.18;;;29.48;;
76409;SDS011;65238;42.662;23.280;2022-12-07T09:04:11;62.20;;;28.75;;
76409;SDS011;65238;42.662;23.280;2022-12-07T09:06:36;65.20;;;30.02;;
76409;SDS011;65238;42.662;23.280;2022-12-07T09:09:02;57.13;;;27.50;;
76409;SDS011;65238;42.662;23.280;2022-12-07T09:11:29;58.25;;;27.40;;
76409;SDS011;65238;42.662;23.280;2022-12-07T09:13:54;63.25;;;28.25;;
76409;SDS011;65238;42.662;23.280;2022-12-07T09:16:20;62.55;;;29.48;;
76409;SDS011;65238;42.662;23.280;2022-12-07T09:18:46;112.70;;;62.80;;
76409;SDS011;65238;42.662;23.280;2022-12-07T09:21:11;106.60;;;53.72;;
76409;SDS011;65238;42.662;23.280;2022-12-07T09:23:37;63.15;;;29.92;;
76409;SDS011;65238;42.662;23.280;2022-12-07T09:26:03;56.25;;;28.02;;
76409;SDS011;65238;42.662;23.280;2022-12-07T09:28:31;60.33;;;27.63;;
76409;SDS011;65238;42.662;23.280;2022-12-07T09:30:57;62.35;;;26.90;;
76409;SDS011;65238;42.662;23.280;2022-12-07T09:33:22;58.38;;;25.95;;
76409;SDS011;65238;42.662;23.280;2022-12-07T09:35:48;55.88;;;25.08;;
76409;SDS011;65238;42.662;23.280;2022-12-07T09:38:14;51.55;;;23.85;;
76409;SDS011;65238;42.662;23.280;2022-12-07T09:40:40;60.78;;;25.83;;
76409;SDS011;65238;42.662;23.280;2022-12-07T09:43:12;52.70;;;25.15;;
76409;SDS011;65238;42.662;23.280;2022-12-07T09:45:39;57.20;;;27.25;;
76409;SDS011;65238;42.662;23.280;2022-12-07T09:48:04;60.15;;;27.75;;
76409;SDS011;65238;42.662;23.280;2022-12-07T09:50:30;64.72;;;27.38;;
76409;SDS011;65238;42.662;23.280;2022-12-07T09:53:04;60.53;;;27.42;;
76409;SDS011;65238;42.662;23.280;2022-12-07T09:55:33;56.80;;;27.00;;
76409;SDS011;65238;42.662;23.280;2022-12-07T09:57:59;55.45;;;24.55;;
76409;SDS011;65238;42.662;23.280;2022-12-07T10:00:25;50.63;;;23.83;;
76409;SDS011;65238;42.662;23.280;2022-12-07T10:02:54;52.75;;;23.20;;
76409;SDS011;65238;42.662;23.280;2022-12-07T10:05:23;48.45;;;23.80;;
76409;SDS011;65238;42.662;23.280;2022-12-07T10:08:11;48.60;;;24.10;;
76409;SDS011;65238;42.662;23.280;2022-12-07T10:10:37;45.80;;;23.15;;
76409;SDS011;65238;42.662;23.280;2022-12-07T10:13:11;47.35;;;22.92;;
76409;SDS011;65238;42.662;23.280;2022-12-07T10:18:30;46.05;;;22.10;;
76409;SDS011;65238;42.662;23.280;2022-12-07T10:21:03;47.70;;;22.25;;
76409;SDS011;65238;42.662;23.280;2022-12-07T10:23:43;55.72;;;23.92;;
76409;SDS011;65238;42.662;23.280;2022-12-07T10:26:28;46.40;;;22.80;;
76409;SDS011;65238;42.662;23.280;2022-12-07T10:29:39;52.83;;;22.92;;
76409;SDS011;65238;42.662;23.280;2022-12-07T10:32:06;51.05;;;22.92;;
76409;SDS011;65238;42.662;23.280;2022-12-07T10:34:39;44.17;;;19.95;;
76409;SDS011;65238;42.662;23.280;2022-12-07T10:39:47;51.25;;;21.33;;
76409;SDS011;65238;42.662;23.280;2022-12-07T10:42:32;49.03;;;23.67;;
76409;SDS011;65238;42.662;23.280;2022-12-07T11:01:03;46.05;;;22.17;;
76409;SDS011;65238;42.662;23.280;2022-12-07T11:03:57;47.60;;;19.50;;
76409;SDS011;65238;42.662;23.280;2022-12-07T11:06:33;38.70;;;20.17;;
76409;SDS011;65238;42.662;23.280;2022-12-07T11:09:16;36.17;;;18.10;;
76409;SDS011;65238;42.662;23.280;2022-12-07T11:11:53;35.20;;;15.95;;
76409;SDS011;65238;42.662;23.280;2022-12-07T11:20:00;44.95;;;18.55;;
76409;SDS011;65238;42.662;23.280;2022-12-07T11:28:02;33.08;;;16.02;;
76409;SDS011;65238;42.662;23.280;2022-12-07T11:30:39;35.47;;;16.92;;
76409;SDS011;65238;42.662;23.280;2022-12-07T11:38:24;50.70;;;19.38;;
76409;SDS011;65238;42.662;23.280;2022-12-07T11:40:56;41.78;;;17.35;;
76409;SDS011;65238;42.662;23.280;2022-12-07T11:43:37;47.25;;;19.88;;
76409;SDS011;65238;42.662;23.280;2022-12-07T11:46:19;43.92;;;18.33;;
76409;SDS011;65238;42.662;23.280;2022-12-07T11:49:02;33.10;;;16.48;;
76409;SDS011;65238;42.662;23.280;2022-12-07T11:51:35;34.35;;;16.90;;
76409;SDS011;65238;42.662;23.280;2022-12-07T11:54:10;42.03;;;17.63;;
76409;SDS011;65238;42.662;23.280;2022-12-07T11:56:39;30.65;;;16.20;;
76409;SDS011;65238;42.662;23.280;2022-12-07T12:01:56;31.00;;;16.02;;
76409;SDS011;65238;42.662;23.280;2022-12-07T12:06:53;34.85;;;17.13;;
76409;SDS011;65238;42.662;23.280;2022-12-07T12:23:00;35.47;;;15.10;;
76409;SDS011;65238;42.662;23.280;2022-12-07T12:25:38;35.53;;;16.83;;
76409;SDS011;65238;42.662;23.280;2022-12-07T12:28:15;37.35;;;17.95;;
76409;SDS011;65238;42.662;23.280;2022-12-07T12:31:04;38.72;;;19.77;;
76409;SDS011;65238;42.662;23.280;2022-12-07T12:33:55;33.00;;;17.38;;
76409;SDS011;65238;42.662;23.280;2022-12-07T12:36:25;33.90;;;17.63;;
76409;SDS011;65238;42.662;23.280;2022-12-07T12:50:22;30.85;;;15.02;;
76409;SDS011;65238;42.662;23.280;2022-12-07T12:55:53;25.50;;;13.63;;
76409;SDS011;65238;42.662;23.280;2022-12-07T13:00:49;24.67;;;12.93;;
76409;SDS011;65238;42.662;23.280;2022-12-07T13:03:52;24.90;;;12.35;;
76409;SDS011;65238;42.662;23.280;2022-12-07T13:08:44;33.00;;;14.52;;
76409;SDS011;65238;42.662;23.280;2022-12-07T13:11:25;34.58;;;13.52;;
76409;SDS011;65238;42.662;23.280;2022-12-07T13:16:58;24.10;;;12.57;;
76409;SDS011;65238;42.662;23.280;2022-12-07T13:19:52;29.77;;;12.30;;
76409;SDS011;65238;42.662;23.280;2022-12-07T13:22:35;29.70;;;13.55;;
76409;SDS011;65238;42.662;23.280;2022-12-07T13:25:09;26.30;;;14.05;;
76409;SDS011;65238;42.662;23.280;2022-12-07T13:27:51;29.65;;;14.02;;
76409;SDS011;65238;42.662;23.280;2022-12-07T13:30:22;30.95;;;14.48;;
76409;SDS011;65238;42.662;23.280;2022-12-07T13:32:54;28.85;;;14.15;;
76409;SDS011;65238;42.662;23.280;2022-12-07T13:35:28;32.58;;;15.70;;
76409;SDS011;65238;42.662;23.280;2022-12-07T13:38:04;29.20;;;14.65;;
76409;SDS011;65238;42.662;23.280;2022-12-07T13:40:38;33.03;;;14.95;;
76409;SDS011;65238;42.662;23.280;2022-12-07T13:43:04;31.17;;;15.40;;
76409;SDS011;65238;42.662;23.280;2022-12-07T13:45:38;28.85;;;13.45;;
76409;SDS011;65238;42.662;23.280;2022-12-07T13:48:32;27.90;;;13.48;;
76409;SDS011;65238;42.662;23.280;2022-12-07T13:51:01;27.25;;;13.52;;
76409;SDS011;65238;42.662;23.280;2022-12-07T13:53:27;29.58;;;15.25;;
76409;SDS011;65238;42.662;23.280;2022-12-07T13:55:55;37.10;;;15.30;;
76409;SDS011;65238;42.662;23.280;2022-12-07T13:58:25;33.35;;;13.52;;
76409;SDS011;65238;42.662;23.280;2022-12-07T14:00:55;29.55;;;13.98;;
76409;SDS011;65238;42.662;23.280;2022-12-07T14:03:29;27.08;;;12.10;;
76409;SDS011;65238;42.662;23.280;2022-12-07T14:06:04;34.67;;;13.50;;
76409;SDS011;65238;42.662;23.280;2022-12-07T14:09:08;30.88;;;12.73;;
76409;SDS011;65238;42.662;23.280;2022-12-07T14:11:49;22.45;;;12.45;;
76409;SDS011;65238;42.662;23.280;2022-12-07T14:14:20;31.33;;;13.23;;
76409;SDS011;65238;42.662;23.280;2022-12-07T14:17:02;30.40;;;13.18;;
76409;SDS011;65238;42.662;23.280;2022-12-07T14:19:47;27.80;;;12.02;;
76409;SDS011;65238;42.662;23.280;2022-12-07T14:22:38;31.33;;;13.60;;
76409;SDS011;65238;42.662;23.280;2022-12-07T14:27:38;31.30;;;13.68;;
76409;SDS011;65238;42.662;23.280;2022-12-07T14:30:04;31.60;;;15.35;;
76409;SDS011;65238;42.662;23.280;2022-12-07T14:32:31;33.88;;;13.60;;
76409;SDS011;65238;42.662;23.280;2022-12-07T14:35:10;27.60;;;13.68;;
76409;SDS011;65238;42.662;23.280;2022-12-07T14:37:39;26.38;;;13.75;;
76409;SDS011;65238;42.662;23.280;2022-12-07T14:40:05;32.33;;;14.98;;
76409;SDS011;65238;42.662;23.280;2022-12-07T14:42:31;35.78;;;13.70;;
76409;SDS011;65238;42.662;23.280;2022-12-07T14:44:57;27.10;;;13.73;;
76409;SDS011;65238;42.662;23.280;2022-12-07T14:47:23;32.83;;;16.38;;
76409;SDS011;65238;42.662;23.280;2022-12-07T14:49:49;43.90;;;18.55;;
76409;SDS011;65238;42.662;23.280;2022-12-07T14:52:36;39.20;;;17.15;;
76409;SDS011;65238;42.662;23.280;2022-12-07T14:55:00;37.63;;;16.23;;
76409;SDS011;65238;42.662;23.280;2022-12-07T14:57:26;37.85;;;16.20;;
76409;SDS011;65238;42.662;23.280;2022-12-07T14:59:51;38.25;;;18.15;;
76409;SDS011;65238;42.662;23.280;2022-12-07T15:02:17;46.83;;;20.95;;
76409;SDS011;65238;42.662;23.280;2022-12-07T15:04:42;38.95;;;19.80;;
76409;SDS011;65238;42.662;23.280;2022-12-07T15:07:16;50.47;;;22.75;;
76409;SDS011;65238;42.662;23.280;2022-12-07T15:09:45;47.92;;;22.25;;
76409;SDS011;65238;42.662;23.280;2022-12-07T15:12:10;63.47;;;30.20;;
76409;SDS011;65238;42.662;23.280;2022-12-07T15:14:36;61.13;;;27.38;;
76409;SDS011;65238;42.662;23.280;2022-12-07T15:17:01;64.90;;;27.98;;
76409;SDS011;65238;42.662;23.280;2022-12-07T15:19:27;62.05;;;25.05;;
76409;SDS011;65238;42.662;23.280;2022-12-07T15:21:52;48.75;;;20.83;;
76409;SDS011;65238;42.662;23.280;2022-12-07T15:24:18;50.10;;;22.95;;
76409;SDS011;65238;42.662;23.280;2022-12-07T15:26:44;44.80;;;20.73;;
76409;SDS011;65238;42.662;23.280;2022-12-07T15:29:10;56.00;;;21.35;;
76409;SDS011;65238;42.662;23.280;2022-12-07T15:31:36;43.67;;;19.50;;
76409;SDS011;65238;42.662;23.280;2022-12-07T15:34:02;38.75;;;16.67;;
76409;SDS011;65238;42.662;23.280;2022-12-07T15:36:29;49.65;;;18.67;;
76409;SDS011;65238;42.662;23.280;2022-12-07T15:38:56;36.30;;;18.48;;
76409;SDS011;65238;42.662;23.280;2022-12-07T15:41:21;42.15;;;18.52;;
76409;SDS011;65238;42.662;23.280;2022-12-07T15:43:47;28.42;;;15.02;;
76409;SDS011;65238;42.662;23.280;2022-12-07T15:46:40;37.03;;;15.80;;
76409;SDS011;65238;42.662;23.280;2022-12-07T15:49:14;36.95;;;15.27;;
76409;SDS011;65238;42.662;23.280;2022-12-07T15:51:42;30.80;;;15.10;;
76409;SDS011;65238;42.662;23.280;2022-12-07T15:54:11;30.95;;;15.27;;
76409;SDS011;65238;42.662;23.280;2022-12-07T15:56:38;33.17;;;15.80;;
76409;SDS011;65238;42.662;23.280;2022-12-07T15:59:04;41.58;;;17.13;;
76409;SDS011;65238;42.662;23.280;2022-12-07T16:01:29;29.02;;;16.23;;
76409;SDS011;65238;42.662;23.280;2022-12-07T16:03:56;37.75;;;17.52;;
76409;SDS011;65238;42.662;23.280;2022-12-07T16:06:22;40.33;;;17.83;;
76409;SDS011;65238;42.662;23.280;2022-12-07T16:08:47;45.40;;;19.90;;
76409;SDS011;65238;42.662;23.280;2022-12-07T16:11:13;46.78;;;22.38;;
76409;SDS011;65238;42.662;23.280;2022-12-07T16:13:39;49.97;;;22.92;;
76409;SDS011;65238;42.662;23.280;2022-12-07T16:16:05;46.45;;;21.88;;
76409;SDS011;65238;42.662;23.280;2022-12-07T16:18:33;46.72;;;22.10;;
76409;SDS011;65238;42.662;23.280;2022-12-07T16:20:59;47.05;;;22.30;;
76409;SDS011;65238;42.662;23.280;2022-12-07T16:23:25;49.05;;;22.55;;
76409;SDS011;65238;42.662;23.280;2022-12-07T16:25:51;51.20;;;21.58;;